sensor_id;sensor_type;location;lat;lon;timestamp;temperature;humidity
3794;DHT22;1912;51.358;12.282;2023-08-06T03:46:34;17.00;1.00
3794;DHT22;1912;51.358;12.282;2023-08-06T03:49:02;16.90;1.00
3794;DHT22;1912;51.358;12.282;2023-08-06T03:51:28;17.00;1.00
3794;DHT22;1912;51.358;12.282;2023-08-06T03:53:54;17.00;1.00
3794;DHT22;1912;51.358;12.282;2023-08-06T03:56:20;17.10;1.00
3794;DHT22;1912;51.358;12.282;2023-08-06T03:58:45;17.10;1.00
3794;DHT22;1912;51.358;12.282;2023-08-06T04:01:11;17.00;1.00
3794;DHT22;1912;51.358;12.282;2023-08-06T04:03:36;16.90;1.00
3794;DHT22;1912;51.358;12.282;2023-08-06T04:06:03;16.90;1.00
3794;DHT22;1912;51.358;12.282;2023-08-06T04:08:29;16.80;1.00
3794;DHT22;1912;51.358;12.282;2023-08-06T04:10:54;16.80;1.00
3794;DHT22;1912;51.358;12.282;2023-08-06T04:13:20;16.80;1.00
3794;DHT22;1912;51.358;12.282;2023-08-06T04:15:46;16.80;1.00
3794;DHT22;1912;51.358;12.282;2023-08-06T04:18:13;16.90;1.00
3794;DHT22;1912;51.358;12.282;2023-08-06T04:20:45;16.90;1.00
3794;DHT22;1912;51.358;12.282;2023-08-06T04:23:12;16.90;1.00
3794;DHT22;1912;51.358;12.282;2023-08-06T04:25:38;16.90;1.00
3794;DHT22;1912;51.358;12.282;2023-08-06T04:28:03;16.80;1.00
3794;DHT22;1912;51.358;12.282;2023-08-06T04:30:29;16.60;1.00
3794;DHT22;1912;51.358;12.282;2023-08-06T04:32:57;16.50;1.00
3794;DHT22;1912;51.358;12.282;2023-08-06T04:35:23;16.50;1.00
3794;DHT22;1912;51.358;12.282;2023-08-06T04:37:49;16.40;1.00
3794;DHT22;1912;51.358;12.282;2023-08-06T04:40:15;16.30;1.00
3794;DHT22;1912;51.358;12.282;2023-08-06T04:42:40;16.20;1.00
3794;DHT22;1912;51.358;12.282;2023-08-06T04:45:06;16.20;1.00
3794;DHT22;1912;51.358;12.282;2023-08-06T04:47:32;16.10;1.00
3794;DHT22;1912;51.358;12.282;2023-08-06T04:49:58;16.10;1.00
3794;DHT22;1912;51.358;12.282;2023-08-06T04:52:24;16.10;1.00
3794;DHT22;1912;51.358;12.282;2023-08-06T04:54:53;16.10;1.00
3794;DHT22;1912;51.358;12.282;2023-08-06T04:57:18;16.10;1.00
3794;DHT22;1912;51.358;12.282;2023-08-06T04:59:45;16.10;1.00
3794;DHT22;1912;51.358;12.282;2023-08-06T05:02:11;16.10;1.00
3794;DHT22;1912;51.358;12.282;2023-08-06T05:04:36;16.10;1.00
3794;DHT22;1912;51.358;12.282;2023-08-06T05:07:02;16.10;1.00
3794;DHT22;1912;51.358;12.282;2023-08-06T05:09:28;16.10;1.00
3794;DHT22;1912;51.358;12.282;2023-08-06T05:11:54;16.10;1.00
3794;DHT22;1912;51.358;12.282;2023-08-06T05:14:20;16.10;1.00
3794;DHT22;1912;51.358;12.282;2023-08-06T05:16:45;16.20;1.00
3794;DHT22;1912;51.358;12.282;2023-08-06T05:19:11;16.20;1.00
3794;DHT22;1912;51.358;12.282;2023-08-06T05:21:37;16.20;1.00
3794;DHT22;1912;51.358;12.282;2023-08-06T05:24:03;16.20;1.00
3794;DHT22;1912;51.358;12.282;2023-08-06T05:26:28;16.20;1.00
3794;DHT22;1912;51.358;12.282;2023-08-06T05:28:54;16.20;1.00
3794;DHT22;1912;51.358;12.282;2023-08-06T05:31:20;16.20;1.00
3794;DHT22;1912;51.358;12.282;2023-08-06T05:33:45;16.30;1.00
3794;DHT22;1912;51.358;12.282;2023-08-06T05:36:11;16.20;1.00
3794;DHT22;1912;51.358;12.282;2023-08-06T05:38:37;16.30;1.00
3794;DHT22;1912;51.358;12.282;2023-08-06T05:41:02;16.30;1.00
3794;DHT22;1912;51.358;12.282;2023-08-06T05:43:28;16.30;1.00
3794;DHT22;1912;51.358;12.282;2023-08-06T05:45:55;16.30;1.00
3794;DHT22;1912;51.358;12.282;2023-08-06T05:48:21;16.30;1.00
3794;DHT22;1912;51.358;12.282;2023-08-06T05:50:48;16.30;1.00
3794;DHT22;1912;51.358;12.282;2023-08-06T05:53:13;16.30;1.00
3794;DHT22;1912;51.358;12.282;2023-08-06T05:55:39;16.40;1.00
3794;DHT22;1912;51.358;12.282;2023-08-06T05:58:05;16.40;1.00
3794;DHT22;1912;51.358;12.282;2023-08-06T06:00:30;16.40;1.00
3794;DHT22;1912;51.358;12.282;2023-08-06T06:02:56;16.40;1.00
3794;DHT22;1912;51.358;12.282;2023-08-06T06:05:22;16.40;1.00
3794;DHT22;1912;51.358;12.282;2023-08-06T06:07:47;16.50;1.00
3794;DHT22;1912;51.358;12.282;2023-08-06T06:10:13;16.50;1.00
3794;DHT22;1912;51.358;12.282;2023-08-06T06:12:40;16.60;1.00
3794;DHT22;1912;51.358;12.282;2023-08-06T06:15:06;16.70;1.00
3794;DHT22;1912;51.358;12.282;2023-08-06T06:17:32;16.60;1.00
3794;DHT22;1912;51.358;12.282;2023-08-06T06:19:58;16.70;1.00
3794;DHT22;1912;51.358;12.282;2023-08-06T06:22:23;16.70;1.00
3794;DHT22;1912;51.358;12.282;2023-08-06T06:24:49;16.80;1.00
3794;DHT22;1912;51.358;12.282;2023-08-06T06:27:14;16.70;1.00
3794;DHT22;1912;51.358;12.282;2023-08-06T06:29:40;16.90;1.00
3794;DHT22;1912;51.358;12.282;2023-08-06T06:32:06;16.90;1.00
3794;DHT22;1912;51.358;12.282;2023-08-06T06:34:32;16.90;1.00
3794;DHT22;1912;51.358;12.282;2023-08-06T06:36:57;17.00;1.00
3794;DHT22;1912;51.358;12.282;2023-08-06T06:39:23;17.00;1.00
3794;DHT22;1912;51.358;12.282;2023-08-06T06:41:49;17.00;1.00
3794;DHT22;1912;51.358;12.282;2023-08-06T06:44:14;17.10;1.00
3794;DHT22;1912;51.358;12.282;2023-08-06T06:46:40;17.10;1.00
3794;DHT22;1912;51.358;12.282;2023-08-06T06:49:06;17.10;1.00
3794;DHT22;1912;51.358;12.282;2023-08-06T06:51:32;17.00;1.00
3794;DHT22;1912;51.358;12.282;2023-08-06T06:53:58;17.10;1.00
3794;DHT22;1912;51.358;12.282;2023-08-06T06:56:24;17.10;1.00
3794;DHT22;1912;51.358;12.282;2023-08-06T06:58:49;17.10;1.00
3794;DHT22;1912;51.358;12.282;2023-08-06T07:01:15;17.10;1.00
3794;DHT22;1912;51.358;12.282;2023-08-06T07:03:41;17.10;1.00
3794;DHT22;1912;51.358;12.282;2023-08-06T07:06:06;17.10;1.00
3794;DHT22;1912;51.358;12.282;2023-08-06T07:08:32;17.10;1.00
3794;DHT22;1912;51.358;12.282;2023-08-06T07:11:02;17.20;1.00
3794;DHT22;1912;51.358;12.282;2023-08-06T07:13:29;17.20;1.00
3794;DHT22;1912;51.358;12.282;2023-08-06T07:15:55;17.30;1.00
3794;DHT22;1912;51.358;12.282;2023-08-06T07:18:21;17.10;1.00
3794;DHT22;1912;51.358;12.282;2023-08-06T07:20:51;17.20;1.00
3794;DHT22;1912;51.358;12.282;2023-08-06T07:23:20;17.30;1.00
3794;DHT22;1912;51.358;12.282;2023-08-06T07:25:47;17.40;1.00
3794;DHT22;1912;51.358;12.282;2023-08-06T07:28:14;17.40;1.00
3794;DHT22;1912;51.358;12.282;2023-08-06T07:30:41;17.40;1.00
3794;DHT22;1912;51.358;12.282;2023-08-06T07:33:07;17.50;1.00
3794;DHT22;1912;51.358;12.282;2023-08-06T07:35:33;17.50;1.00
3794;DHT22;1912;51.358;12.282;2023-08-06T07:38:00;17.50;1.00
3794;DHT22;1912;51.358;12.282;2023-08-06T07:40:26;17.60;1.00
3794;DHT22;1912;51.358;12.282;2023-08-06T07:42:51;17.70;1.00
3794;DHT22;1912;51.358;12.282;2023-08-06T07:45:17;17.80;1.00
3794;DHT22;1912;51.358;12.282;2023-08-06T07:47:43;17.80;1.00
3794;DHT22;1912;51.358;12.282;2023-08-06T07:50:09;17.80;1.00
3794;DHT22;1912;51.358;12.282;2023-08-06T07:52:35;18.00;1.00
3794;DHT22;1912;51.358;12.282;2023-08-06T07:55:02;18.00;1.00
3794;DHT22;1912;51.358;12.282;2023-08-06T07:57:31;18.10;1.00
3794;DHT22;1912;51.358;12.282;2023-08-06T07:59:57;18.10;1.00
3794;DHT22;1912;51.358;12.282;2023-08-06T08:02:23;18.20;1.00
3794;DHT22;1912;51.358;12.282;2023-08-06T08:04:48;18.30;1.00
3794;DHT22;1912;51.358;12.282;2023-08-06T08:07:14;18.30;1.00
3794;DHT22;1912;51.358;12.282;2023-08-06T08:09:40;18.40;1.00
3794;DHT22;1912;51.358;12.282;2023-08-06T08:12:06;18.50;1.00
3794;DHT22;1912;51.358;12.282;2023-08-06T08:14:32;18.60;1.00
3794;DHT22;1912;51.358;12.282;2023-08-06T08:17:02;18.50;1.00
3794;DHT22;1912;51.358;12.282;2023-08-06T08:19:29;18.40;1.00
3794;DHT22;1912;51.358;12.282;2023-08-06T08:21:55;18.60;1.00
3794;DHT22;1912;51.358;12.282;2023-08-06T08:24:21;18.50;1.00
3794;DHT22;1912;51.358;12.282;2023-08-06T08:26:52;18.60;1.00
3794;DHT22;1912;51.358;12.282;2023-08-06T08:29:21;18.60;1.00
3794;DHT22;1912;51.358;12.282;2023-08-06T08:31:48;18.60;1.00
3794;DHT22;1912;51.358;12.282;2023-08-06T08:34:17;18.60;1.00
3794;DHT22;1912;51.358;12.282;2023-08-06T08:36:43;18.70;1.00
3794;DHT22;1912;51.358;12.282;2023-08-06T08:39:09;18.70;1.00
3794;DHT22;1912;51.358;12.282;2023-08-06T08:41:37;18.70;1.00
3794;DHT22;1912;51.358;12.282;2023-08-06T08:44:07;18.70;1.00
3794;DHT22;1912;51.358;12.282;2023-08-06T08:46:39;18.80;1.00
3794;DHT22;1912;51.358;12.282;2023-08-06T08:49:05;19.00;1.00
3794;DHT22;1912;51.358;12.282;2023-08-06T08:51:33;19.10;1.00
3794;DHT22;1912;51.358;12.282;2023-08-06T08:54:03;19.30;1.00
3794;DHT22;1912;51.358;12.282;2023-08-06T08:56:29;19.40;1.00
3794;DHT22;1912;51.358;12.282;2023-08-06T08:58:54;19.50;1.00
3794;DHT22;1912;51.358;12.282;2023-08-06T09:01:22;19.70;1.00
3794;DHT22;1912;51.358;12.282;2023-08-06T09:03:48;19.70;1.00
3794;DHT22;1912;51.358;12.282;2023-08-06T09:06:15;19.70;1.00
3794;DHT22;1912;51.358;12.282;2023-08-06T09:08:51;19.80;1.00
3794;DHT22;1912;51.358;12.282;2023-08-06T09:11:23;19.90;1.00
3794;DHT22;1912;51.358;12.282;2023-08-06T09:13:49;19.90;1.00
3794;DHT22;1912;51.358;12.282;2023-08-06T09:16:15;19.90;1.00
3794;DHT22;1912;51.358;12.282;2023-08-06T09:18:41;20.20;1.00
3794;DHT22;1912;51.358;12.282;2023-08-06T09:21:13;20.20;1.00
3794;DHT22;1912;51.358;12.282;2023-08-06T09:23:43;20.30;1.00
3794;DHT22;1912;51.358;12.282;2023-08-06T09:26:12;20.10;1.00
3794;DHT22;1912;51.358;12.282;2023-08-06T09:28:39;20.10;1.00
3794;DHT22;1912;51.358;12.282;2023-08-06T09:31:08;20.30;1.00
3794;DHT22;1912;51.358;12.282;2023-08-06T09:33:36;20.20;1.00
3794;DHT22;1912;51.358;12.282;2023-08-06T09:36:12;20.20;1.00
3794;DHT22;1912;51.358;12.282;2023-08-06T09:38:39;20.20;1.00
3794;DHT22;1912;51.358;12.282;2023-08-06T09:41:06;20.20;1.00
3794;DHT22;1912;51.358;12.282;2023-08-06T09:43:42;20.30;1.00
3794;DHT22;1912;51.358;12.282;2023-08-06T09:46:12;20.30;1.00
3794;DHT22;1912;51.358;12.282;2023-08-06T09:48:45;20.40;1.00
3794;DHT22;1912;51.358;12.282;2023-08-06T09:51:13;20.50;1.00
3794;DHT22;1912;51.358;12.282;2023-08-06T09:53:40;20.60;1.00
3794;DHT22;1912;51.358;12.282;2023-08-06T09:56:06;20.80;1.00
3794;DHT22;1912;51.358;12.282;2023-08-06T09:58:32;20.60;1.00
3794;DHT22;1912;51.358;12.282;2023-08-06T10:01:00;20.80;1.00
3794;DHT22;1912;51.358;12.282;2023-08-06T10:03:28;20.90;1.00
3794;DHT22;1912;51.358;12.282;2023-08-06T10:05:55;21.00;1.00
3794;DHT22;1912;51.358;12.282;2023-08-06T10:08:22;21.00;1.00
3794;DHT22;1912;51.358;12.282;2023-08-06T10:10:48;21.00;1.00
3794;DHT22;1912;51.358;12.282;2023-08-06T10:13:14;21.20;1.00
3794;DHT22;1912;51.358;12.282;2023-08-06T10:15:42;21.20;1.00
3794;DHT22;1912;51.358;12.282;2023-08-06T10:18:08;21.30;1.00
3794;DHT22;1912;51.358;12.282;2023-08-06T10:20:34;21.60;1.00
3794;DHT22;1912;51.358;12.282;2023-08-06T10:23:05;21.60;1.00
3794;DHT22;1912;51.358;12.282;2023-08-06T10:25:34;21.30;1.00
3794;DHT22;1912;51.358;12.282;2023-08-06T10:28:06;21.10;1.00
3794;DHT22;1912;51.358;12.282;2023-08-06T10:30:41;21.20;1.00
3794;DHT22;1912;51.358;12.282;2023-08-06T10:33:08;20.90;1.00
3794;DHT22;1912;51.358;12.282;2023-08-06T10:35:35;21.00;1.00
3794;DHT22;1912;51.358;12.282;2023-08-06T10:38:13;21.20;1.00
3794;DHT22;1912;51.358;12.282;2023-08-06T10:43:29;21.20;1.00
3794;DHT22;1912;51.358;12.282;2023-08-06T10:45:59;21.50;1.00
3794;DHT22;1912;51.358;12.282;2023-08-06T10:51:08;21.70;1.00
3794;DHT22;1912;51.358;12.282;2023-08-06T10:53:35;21.90;1.00
3794;DHT22;1912;51.358;12.282;2023-08-06T10:56:02;22.10;1.00
3794;DHT22;1912;51.358;12.282;2023-08-06T10:58:47;22.30;1.00
3794;DHT22;1912;51.358;12.282;2023-08-06T11:01:14;22.40;1.00
3794;DHT22;1912;51.358;12.282;2023-08-06T11:03:42;22.80;1.00
3794;DHT22;1912;51.358;12.282;2023-08-06T11:06:08;22.70;1.00
3794;DHT22;1912;51.358;12.282;2023-08-06T11:08:36;22.80;1.00
3794;DHT22;1912;51.358;12.282;2023-08-06T11:11:16;23.20;1.00
3794;DHT22;1912;51.358;12.282;2023-08-06T11:13:44;23.60;1.00
3794;DHT22;1912;51.358;12.282;2023-08-06T11:16:15;23.50;1.00
3794;DHT22;1912;51.358;12.282;2023-08-06T11:18:42;23.60;1.00
3794;DHT22;1912;51.358;12.282;2023-08-06T11:21:08;23.70;1.00
3794;DHT22;1912;51.358;12.282;2023-08-06T11:23:34;23.30;1.00
3794;DHT22;1912;51.358;12.282;2023-08-06T11:26:01;23.20;1.00
3794;DHT22;1912;51.358;12.282;2023-08-06T11:28:27;23.10;1.00
3794;DHT22;1912;51.358;12.282;2023-08-06T11:30:53;23.10;1.00
3794;DHT22;1912;51.358;12.282;2023-08-06T11:33:26;23.40;1.00
3794;DHT22;1912;51.358;12.282;2023-08-06T11:35:56;23.30;1.00
3794;DHT22;1912;51.358;12.282;2023-08-06T11:38:29;23.20;1.00
3794;DHT22;1912;51.358;12.282;2023-08-06T11:40:56;23.40;1.00
3794;DHT22;1912;51.358;12.282;2023-08-06T11:43:22;23.30;1.00
3794;DHT22;1912;51.358;12.282;2023-08-06T11:45:51;23.10;1.00
3794;DHT22;1912;51.358;12.282;2023-08-06T11:48:19;23.40;1.00
3794;DHT22;1912;51.358;12.282;2023-08-06T11:50:45;23.40;1.00
3794;DHT22;1912;51.358;12.282;2023-08-06T11:53:14;23.20;1.00
3794;DHT22;1912;51.358;12.282;2023-08-06T11:55:40;23.30;1.00
3794;DHT22;1912;51.358;12.282;2023-08-06T11:58:06;23.10;1.00
3794;DHT22;1912;51.358;12.282;2023-08-06T12:00:32;23.30;1.00
3794;DHT22;1912;51.358;12.282;2023-08-06T12:02:58;23.20;1.00
3794;DHT22;1912;51.358;12.282;2023-08-06T12:05:29;23.00;1.00
3794;DHT22;1912;51.358;12.282;2023-08-06T12:07:57;23.30;1.00
3794;DHT22;1912;51.358;12.282;2023-08-06T12:10:25;23.50;1.00
3794;DHT22;1912;51.358;12.282;2023-08-06T12:12:52;23.80;1.00
3794;DHT22;1912;51.358;12.282;2023-08-06T12:15:18;23.90;1.00
3794;DHT22;1912;51.358;12.282;2023-08-06T12:17:43;24.20;1.00
3794;DHT22;1912;51.358;12.282;2023-08-06T12:20:10;24.30;1.00
3794;DHT22;1912;51.358;12.282;2023-08-06T12:22:37;24.60;1.00
3794;DHT22;1912;51.358;12.282;2023-08-06T12:25:06;25.20;1.00
3794;DHT22;1912;51.358;12.282;2023-08-06T12:27:41;25.90;1.00
3794;DHT22;1912;51.358;12.282;2023-08-06T12:30:08;26.10;1.00
3794;DHT22;1912;51.358;12.282;2023-08-06T12:32:35;25.40;1.00
3794;DHT22;1912;51.358;12.282;2023-08-06T12:35:01;24.90;1.00
3794;DHT22;1912;51.358;12.282;2023-08-06T12:37:27;24.80;1.00
3794;DHT22;1912;51.358;12.282;2023-08-06T12:39:53;24.60;1.00
3794;DHT22;1912;51.358;12.282;2023-08-06T12:42:19;24.50;1.00
3794;DHT22;1912;51.358;12.282;2023-08-06T12:44:44;24.00;1.00
3794;DHT22;1912;51.358;12.282;2023-08-06T12:47:10;23.90;1.00
3794;DHT22;1912;51.358;12.282;2023-08-06T12:49:36;24.00;1.00
3794;DHT22;1912;51.358;12.282;2023-08-06T12:52:02;23.90;1.00
3794;DHT22;1912;51.358;12.282;2023-08-06T12:54:31;23.80;1.00
3794;DHT22;1912;51.358;12.282;2023-08-06T12:57:02;23.60;1.00
3794;DHT22;1912;51.358;12.282;2023-08-06T12:59:28;23.80;1.00
3794;DHT22;1912;51.358;12.282;2023-08-06T13:01:54;23.80;1.00
3794;DHT22;1912;51.358;12.282;2023-08-06T13:04:19;23.80;1.00
3794;DHT22;1912;51.358;12.282;2023-08-06T13:06:45;23.50;1.00
3794;DHT22;1912;51.358;12.282;2023-08-06T13:09:12;23.60;1.00
3794;DHT22;1912;51.358;12.282;2023-08-06T13:11:40;23.80;1.00
3794;DHT22;1912;51.358;12.282;2023-08-06T13:14:13;23.70;1.00
3794;DHT22;1912;51.358;12.282;2023-08-06T13:16:42;23.60;1.00
3794;DHT22;1912;51.358;12.282;2023-08-06T13:19:08;23.90;1.00
3794;DHT22;1912;51.358;12.282;2023-08-06T13:21:58;24.30;1.00
3794;DHT22;1912;51.358;12.282;2023-08-06T13:24:29;24.60;1.00
3794;DHT22;1912;51.358;12.282;2023-08-06T13:26:55;24.50;1.00
3794;DHT22;1912;51.358;12.282;2023-08-06T13:29:21;25.00;1.00
3794;DHT22;1912;51.358;12.282;2023-08-06T13:31:46;25.30;1.00
3794;DHT22;1912;51.358;12.282;2023-08-06T13:34:12;25.20;1.00
3794;DHT22;1912;51.358;12.282;2023-08-06T13:36:38;25.20;1.00
3794;DHT22;1912;51.358;12.282;2023-08-06T13:39:04;25.30;1.00
3794;DHT22;1912;51.358;12.282;2023-08-06T13:41:30;25.40;1.00
3794;DHT22;1912;51.358;12.282;2023-08-06T13:43:56;25.70;1.00
3794;DHT22;1912;51.358;12.282;2023-08-06T13:46:22;26.00;1.00
3794;DHT22;1912;51.358;12.282;2023-08-06T13:48:48;26.60;1.00
3794;DHT22;1912;51.358;12.282;2023-08-06T13:51:17;26.50;1.00
3794;DHT22;1912;51.358;12.282;2023-08-06T13:53:42;26.70;1.00
3794;DHT22;1912;51.358;12.282;2023-08-06T13:56:09;26.80;1.00
3794;DHT22;1912;51.358;12.282;2023-08-06T13:58:35;26.90;1.00
3794;DHT22;1912;51.358;12.282;2023-08-06T14:01:01;27.80;1.00
3794;DHT22;1912;51.358;12.282;2023-08-06T14:03:27;27.20;1.00
3794;DHT22;1912;51.358;12.282;2023-08-06T14:05:52;27.30;1.00
3794;DHT22;1912;51.358;12.282;2023-08-06T14:08:20;27.50;1.00
3794;DHT22;1912;51.358;12.282;2023-08-06T14:10:46;27.90;1.00
3794;DHT22;1912;51.358;12.282;2023-08-06T14:13:12;27.90;1.00
3794;DHT22;1912;51.358;12.282;2023-08-06T14:15:38;27.90;1.00
3794;DHT22;1912;51.358;12.282;2023-08-06T14:18:07;27.60;1.00
3794;DHT22;1912;51.358;12.282;2023-08-06T14:20:35;27.70;1.00
3794;DHT22;1912;51.358;12.282;2023-08-06T14:23:01;28.40;1.00
3794;DHT22;1912;51.358;12.282;2023-08-06T14:25:27;28.10;1.00
3794;DHT22;1912;51.358;12.282;2023-08-06T14:27:52;28.10;1.00
3794;DHT22;1912;51.358;12.282;2023-08-06T14:30:18;27.80;1.00
3794;DHT22;1912;51.358;12.282;2023-08-06T14:32:44;27.80;1.00
3794;DHT22;1912;51.358;12.282;2023-08-06T14:35:10;28.20;1.00
3794;DHT22;1912;51.358;12.282;2023-08-06T14:37:35;28.00;1.00
3794;DHT22;1912;51.358;12.282;2023-08-06T14:40:01;28.50;1.00
3794;DHT22;1912;51.358;12.282;2023-08-06T14:42:27;28.20;1.00
3794;DHT22;1912;51.358;12.282;2023-08-06T14:44:53;28.20;1.00
3794;DHT22;1912;51.358;12.282;2023-08-06T14:47:19;27.90;1.00
3794;DHT22;1912;51.358;12.282;2023-08-06T14:49:44;27.70;1.00
3794;DHT22;1912;51.358;12.282;2023-08-06T14:52:10;27.50;1.00
3794;DHT22;1912;51.358;12.282;2023-08-06T14:54:36;27.10;1.00
3794;DHT22;1912;51.358;12.282;2023-08-06T14:57:01;26.90;1.00
3794;DHT22;1912;51.358;12.282;2023-08-06T14:59:27;27.00;1.00
3794;DHT22;1912;51.358;12.282;2023-08-06T15:01:53;26.50;1.00
3794;DHT22;1912;51.358;12.282;2023-08-06T15:04:19;26.70;1.00
3794;DHT22;1912;51.358;12.282;2023-08-06T15:06:44;26.60;1.00
3794;DHT22;1912;51.358;12.282;2023-08-06T15:09:11;26.60;1.00
3794;DHT22;1912;51.358;12.282;2023-08-06T15:11:37;26.50;1.00
3794;DHT22;1912;51.358;12.282;2023-08-06T15:14:02;26.40;1.00
3794;DHT22;1912;51.358;12.282;2023-08-06T15:16:30;26.30;1.00
3794;DHT22;1912;51.358;12.282;2023-08-06T15:18:56;26.20;1.00
3794;DHT22;1912;51.358;12.282;2023-08-06T15:21:22;26.20;1.00
3794;DHT22;1912;51.358;12.282;2023-08-06T15:23:47;25.90;1.00
3794;DHT22;1912;51.358;12.282;2023-08-06T15:26:13;25.70;1.00
3794;DHT22;1912;51.358;12.282;2023-08-06T15:28:39;25.80;1.00
3794;DHT22;1912;51.358;12.282;2023-08-06T15:31:04;25.80;1.00
3794;DHT22;1912;51.358;12.282;2023-08-06T15:33:33;25.90;1.00
3794;DHT22;1912;51.358;12.282;2023-08-06T15:35:59;25.60;1.00
3794;DHT22;1912;51.358;12.282;2023-08-06T15:38:24;25.50;1.00
3794;DHT22;1912;51.358;12.282;2023-08-06T15:40:50;25.60;1.00
3794;DHT22;1912;51.358;12.282;2023-08-06T15:43:16;25.40;1.00
3794;DHT22;1912;51.358;12.282;2023-08-06T15:45:41;25.00;1.00
3794;DHT22;1912;51.358;12.282;2023-08-06T15:48:07;24.70;1.00
3794;DHT22;1912;51.358;12.282;2023-08-06T15:50:37;24.50;1.00
3794;DHT22;1912;51.358;12.282;2023-08-06T15:53:03;24.30;1.00
3794;DHT22;1912;51.358;12.282;2023-08-06T15:55:29;24.10;1.00
3794;DHT22;1912;51.358;12.282;2023-08-06T15:57:55;23.80;1.00
3794;DHT22;1912;51.358;12.282;2023-08-06T16:00:21;23.80;1.00
3794;DHT22;1912;51.358;12.282;2023-08-06T16:02:46;23.60;1.00
3794;DHT22;1912;51.358;12.282;2023-08-06T16:05:12;23.40;1.00
3794;DHT22;1912;51.358;12.282;2023-08-06T16:07:38;23.40;1.00
3794;DHT22;1912;51.358;12.282;2023-08-06T16:10:04;23.30;1.00
3794;DHT22;1912;51.358;12.282;2023-08-06T16:12:30;23.40;1.00
3794;DHT22;1912;51.358;12.282;2023-08-06T16:14:56;23.60;1.00
3794;DHT22;1912;51.358;12.282;2023-08-06T16:17:22;23.80;1.00
3794;DHT22;1912;51.358;12.282;2023-08-06T16:19:48;24.00;1.00
3794;DHT22;1912;51.358;12.282;2023-08-06T16:22:14;24.10;1.00
3794;DHT22;1912;51.358;12.282;2023-08-06T16:24:40;23.90;1.00
3794;DHT22;1912;51.358;12.282;2023-08-06T16:27:06;23.60;1.00
3794;DHT22;1912;51.358;12.282;2023-08-06T16:29:33;23.20;1.00
3794;DHT22;1912;51.358;12.282;2023-08-06T16:31:59;23.30;1.00
3794;DHT22;1912;51.358;12.282;2023-08-06T16:34:25;23.30;1.00
3794;DHT22;1912;51.358;12.282;2023-08-06T16:36:51;23.40;1.00
3794;DHT22;1912;51.358;12.282;2023-08-06T16:39:16;23.40;1.00
3794;DHT22;1912;51.358;12.282;2023-08-06T16:41:46;23.30;1.00
3794;DHT22;1912;51.358;12.282;2023-08-06T16:44:12;23.30;1.00
3794;DHT22;1912;51.358;12.282;2023-08-06T16:46:38;22.70;1.00
3794;DHT22;1912;51.358;12.282;2023-08-06T16:49:04;21.80;1.00
3794;DHT22;1912;51.358;12.282;2023-08-06T16:51:30;20.70;1.00
3794;DHT22;1912;51.358;12.282;2023-08-06T16:53:55;20.00;1.00
3794;DHT22;1912;51.358;12.282;2023-08-06T16:56:21;19.60;1.00
3794;DHT22;1912;51.358;12.282;2023-08-06T16:58:47;19.70;1.00
3794;DHT22;1912;51.358;12.282;2023-08-06T17:01:12;19.30;1.00
3794;DHT22;1912;51.358;12.282;2023-08-06T17:03:38;18.70;1.00
3794;DHT22;1912;51.358;12.282;2023-08-06T17:06:04;18.50;1.00
3794;DHT22;1912;51.358;12.282;2023-08-06T17:08:30;18.30;1.00
3794;DHT22;1912;51.358;12.282;2023-08-06T17:11:02;18.30;1.00
3794;DHT22;1912;51.358;12.282;2023-08-06T17:13:28;18.20;1.00
3794;DHT22;1912;51.358;12.282;2023-08-06T17:15:55;18.20;1.00
3794;DHT22;1912;51.358;12.282;2023-08-06T17:18:22;18.20;1.00
3794;DHT22;1912;51.358;12.282;2023-08-06T17:20:48;18.00;1.00
3794;DHT22;1912;51.358;12.282;2023-08-06T17:23:14;17.90;1.00
3794;DHT22;1912;51.358;12.282;2023-08-06T17:25:41;17.80;1.00
3794;DHT22;1912;51.358;12.282;2023-08-06T17:28:07;17.70;1.00
3794;DHT22;1912;51.358;12.282;2023-08-06T17:30:33;17.60;1.00
3794;DHT22;1912;51.358;12.282;2023-08-06T17:32:59;17.20;1.00
3794;DHT22;1912;51.358;12.282;2023-08-06T17:35:24;16.90;1.00
3794;DHT22;1912;51.358;12.282;2023-08-06T17:37:50;16.60;1.00
3794;DHT22;1912;51.358;12.282;2023-08-06T17:40:18;16.40;1.00
3794;DHT22;1912;51.358;12.282;2023-08-06T17:42:44;16.30;1.00
3794;DHT22;1912;51.358;12.282;2023-08-06T17:45:10;16.40;1.00
3794;DHT22;1912;51.358;12.282;2023-08-06T17:47:36;16.40;1.00
3794;DHT22;1912;51.358;12.282;2023-08-06T17:50:02;16.40;1.00
3794;DHT22;1912;51.358;12.282;2023-08-06T17:52:29;16.10;1.00
3794;DHT22;1912;51.358;12.282;2023-08-06T17:54:54;15.80;1.00
3794;DHT22;1912;51.358;12.282;2023-08-06T17:57:20;15.70;1.00
3794;DHT22;1912;51.358;12.282;2023-08-06T17:59:46;15.70;1.00
3794;DHT22;1912;51.358;12.282;2023-08-06T18:02:11;15.80;1.00
3794;DHT22;1912;51.358;12.282;2023-08-06T18:04:37;15.80;1.00
3794;DHT22;1912;51.358;12.282;2023-08-06T18:07:03;15.80;1.00
3794;DHT22;1912;51.358;12.282;2023-08-06T18:09:29;15.90;1.00
3794;DHT22;1912;51.358;12.282;2023-08-06T18:11:54;16.00;1.00
3794;DHT22;1912;51.358;12.282;2023-08-06T18:14:20;16.20;1.00
3794;DHT22;1912;51.358;12.282;2023-08-06T18:16:46;16.20;1.00
3794;DHT22;1912;51.358;12.282;2023-08-06T18:19:11;15.90;1.00
3794;DHT22;1912;51.358;12.282;2023-08-06T18:21:37;15.70;1.00
3794;DHT22;1912;51.358;12.282;2023-08-06T18:24:03;15.70;1.00
3794;DHT22;1912;51.358;12.282;2023-08-06T18:26:28;15.60;1.00
3794;DHT22;1912;51.358;12.282;2023-08-06T18:28:54;15.50;1.00
3794;DHT22;1912;51.358;12.282;2023-08-06T18:31:20;15.60;1.00
3794;DHT22;1912;51.358;12.282;2023-08-06T18:33:45;15.60;1.00
3794;DHT22;1912;51.358;12.282;2023-08-06T18:36:11;15.60;1.00
3794;DHT22;1912;51.358;12.282;2023-08-06T18:38:37;15.60;1.00
3794;DHT22;1912;51.358;12.282;2023-08-06T18:41:02;15.60;1.00
3794;DHT22;1912;51.358;12.282;2023-08-06T18:43:28;15.50;1.00
3794;DHT22;1912;51.358;12.282;2023-08-06T18:45:55;15.40;1.00
3794;DHT22;1912;51.358;12.282;2023-08-06T18:48:22;15.40;1.00
3794;DHT22;1912;51.358;12.282;2023-08-06T18:50:49;15.50;1.00
3794;DHT22;1912;51.358;12.282;2023-08-06T18:53:14;15.50;1.00
3794;DHT22;1912;51.358;12.282;2023-08-06T18:55:50;15.50;1.00
3794;DHT22;1912;51.358;12.282;2023-08-06T18:58:17;15.50;1.00
3794;DHT22;1912;51.358;12.282;2023-08-06T19:00:43;15.50;1.00
3794;DHT22;1912;51.358;12.282;2023-08-06T19:03:10;15.50;1.00
3794;DHT22;1912;51.358;12.282;2023-08-06T19:05:36;15.60;1.00
3794;DHT22;1912;51.358;12.282;2023-08-06T19:08:04;15.50;1.00
3794;DHT22;1912;51.358;12.282;2023-08-06T19:10:31;15.40;1.00
3794;DHT22;1912;51.358;12.282;2023-08-06T19:12:59;15.40;1.00
3794;DHT22;1912;51.358;12.282;2023-08-06T19:15:25;15.40;1.00
3794;DHT22;1912;51.358;12.282;2023-08-06T19:17:53;15.30;1.00
3794;DHT22;1912;51.358;12.282;2023-08-06T19:20:18;15.30;1.00
3794;DHT22;1912;51.358;12.282;2023-08-06T19:22:44;15.20;1.00
3794;DHT22;1912;51.358;12.282;2023-08-06T19:25:11;15.20;1.00
3794;DHT22;1912;51.358;12.282;2023-08-06T19:27:37;15.20;1.00
3794;DHT22;1912;51.358;12.282;2023-08-06T19:30:03;15.20;1.00
3794;DHT22;1912;51.358;12.282;2023-08-06T19:32:29;15.20;1.00
3794;DHT22;1912;51.358;12.282;2023-08-06T19:34:55;15.20;1.00
3794;DHT22;1912;51.358;12.282;2023-08-06T19:37:20;15.30;1.00
3794;DHT22;1912;51.358;12.282;2023-08-06T19:39:49;15.30;1.00
3794;DHT22;1912;51.358;12.282;2023-08-06T19:42:17;15.30;1.00
3794;DHT22;1912;51.358;12.282;2023-08-06T19:44:43;15.40;1.00
3794;DHT22;1912;51.358;12.282;2023-08-06T19:47:09;15.30;1.00
3794;DHT22;1912;51.358;12.282;2023-08-06T19:49:34;15.40;1.00